Time;durP1;ratioP1;P1;durP2;ratioP2;P2;SDS_P1;SDS_P2;PMS_P1;PMS_P2;Temp;Humidity;BMP_temperature;BMP_pressure;BME280_temperature;BME280_humidity;BME280_pressure;Samples;Min_cycle;Max_cycle;Signal;HPM_P1;HPM_P2
2022/03/12 00:01:56;;;;;;;9.57;6.38;;;4.50;45.90;;;;;;5030499;28;20025;-45
2022/03/12 00:04:22;;;;;;;10.80;6.93;;;4.50;45.20;;;;;;5030986;28;20039;-45
2022/03/12 00:06:49;;;;;;;9.90;6.80;;;4.60;45.20;;;;;;4994049;28;20038;-47
2022/03/12 00:09:17;;;;;;;12.00;6.93;;;4.60;45.40;;;;;;5010189;28;20462;-44
2022/03/12 00:11:55;;;;;;;11.00;7.43;;;4.60;44.90;;;;;;5018168;28;20041;-44
2022/03/12 00:14:23;;;;;;;11.55;6.88;;;4.50;45.20;;;;;;5031061;28;20051;-44
2022/03/12 00:16:52;;;;;;;12.52;6.50;;;4.50;44.80;;;;;;5030990;28;20021;-45
2022/03/12 00:19:21;;;;;;;15.82;6.28;;;4.50;45.00;;;;;;5013351;28;20033;-49
2022/03/12 00:21:49;;;;;;;11.73;7.07;;;4.60;44.60;;;;;;5030782;28;20037;-43
2022/03/12 00:24:17;;;;;;;11.90;7.20;;;4.60;44.50;;;;;;5030609;28;20112;-44
2022/03/12 00:26:46;;;;;;;12.90;6.47;;;4.60;44.30;;;;;;5013835;28;20060;-43
2022/03/12 00:29:16;;;;;;;9.90;6.60;;;4.50;44.60;;;;;;5012688;28;20053;-45
2022/03/12 00:31:45;;;;;;;10.23;7.13;;;4.50;44.30;;;;;;5013462;28;20029;-45
2022/03/12 00:34:13;;;;;;;16.52;7.18;;;4.50;44.70;;;;;;5013469;28;20098;-44
2022/03/12 00:36:42;;;;;;;10.30;6.68;;;4.50;44.20;;;;;;5012468;28;20486;-43
2022/03/12 00:39:12;;;;;;;15.70;7.38;;;4.50;44.10;;;;;;5029868;28;20029;-44
2022/03/12 00:41:38;;;;;;;10.00;5.95;;;4.50;43.90;;;;;;4996685;28;20046;-44
2022/03/12 00:44:07;;;;;;;10.63;7.70;;;4.50;44.20;;;;;;5029889;28;20034;-45
2022/03/12 00:46:35;;;;;;;11.70;6.50;;;4.40;44.00;;;;;;5013057;28;20364;-44
2022/03/12 00:49:03;;;;;;;11.88;6.60;;;4.40;44.10;;;;;;5029843;28;20052;-43
2022/03/12 00:51:38;;;;;;;11.20;6.80;;;4.40;44.00;;;;;;5018887;28;20370;-44
2022/03/12 00:54:07;;;;;;;9.85;6.30;;;4.40;44.50;;;;;;5029925;28;20029;-43
2022/03/12 00:56:39;;;;;;;10.55;6.63;;;4.30;44.40;;;;;;5012802;28;20026;-45
2022/03/12 00:59:08;;;;;;;11.10;6.70;;;4.40;44.20;;;;;;5030475;28;20094;-43
2022/03/12 01:01:35;;;;;;;9.90;6.35;;;4.30;44.50;;;;;;5029981;28;20044;-44
2022/03/12 01:04:02;;;;;;;9.23;5.57;;;4.20;45.20;;;;;;5030113;28;20460;-44
2022/03/12 01:06:30;;;;;;;13.38;7.63;;;4.20;44.80;;;;;;5030224;28;20030;-45
2022/03/12 01:08:57;;;;;;;12.23;6.38;;;4.20;45.40;;;;;;5029674;28;20032;-43
2022/03/12 01:11:22;;;;;;;13.57;5.93;;;4.20;45.20;;;;;;5012110;28;20038;-43
2022/03/12 01:13:49;;;;;;;13.23;6.65;;;4.20;45.50;;;;;;4995716;28;20069;-44
2022/03/12 01:16:19;;;;;;;8.18;5.80;;;4.10;45.50;;;;;;5012289;28;20434;-45
2022/03/12 01:18:45;;;;;;;;;;;4.10;45.00;;;;;;5013202;28;20052;-44
2022/03/12 01:21:31;;;;;;;11.43;6.25;;;4.10;45.10;;;;;;5029325;28;20353;-46
2022/03/12 01:23:58;;;;;;;10.43;6.38;;;4.10;45.20;;;;;;5029295;28;20025;-43
2022/03/12 01:26:26;;;;;;;10.73;6.22;;;4.00;45.80;;;;;;5012323;28;20084;-45
2022/03/12 01:28:52;;;;;;;11.13;6.30;;;4.00;45.60;;;;;;5011975;28;20044;-48
2022/03/12 01:31:22;;;;;;;8.73;5.93;;;3.90;45.70;;;;;;4992704;28;20042;-45
2022/03/12 01:33:53;;;;;;;10.65;6.85;;;4.00;46.30;;;;;;4993280;28;20052;-44
2022/03/12 01:36:23;;;;;;;8.07;5.47;;;4.00;45.30;;;;;;5022592;28;20029;-44
2022/03/12 01:39:07;;;;;;;11.60;6.65;;;3.90;45.40;;;;;;5012553;28;20394;-43
2022/03/12 01:41:40;;;;;;;11.77;6.68;;;3.90;45.60;;;;;;5029471;28;20447;-43
2022/03/12 01:44:07;;;;;;;11.07;7.03;;;3.90;45.70;;;;;;5011961;28;20406;-45
2022/03/12 01:46:40;;;;;;;12.90;6.93;;;3.90;45.80;;;;;;5012170;28;20037;-44
2022/03/12 01:49:18;;;;;;;11.82;7.60;;;3.80;45.90;;;;;;5015663;28;20116;-44
2022/03/12 01:51:48;;;;;;;16.98;7.53;;;3.90;45.90;;;;;;5017582;28;20183;-44
2022/03/12 01:54:29;;;;;;;11.65;7.38;;;3.80;45.70;;;;;;5015938;28;20025;-44
2022/03/12 01:56:59;;;;;;;11.90;7.40;;;3.90;45.40;;;;;;5033333;28;20033;-43
2022/03/12 01:59:27;;;;;;;10.15;6.38;;;3.90;45.30;;;;;;4995812;28;20095;-46
2022/03/12 02:01:54;;;;;;;10.10;6.43;;;3.80;45.50;;;;;;5013778;28;20363;-44
2022/03/12 02:04:25;;;;;;;12.35;7.00;;;3.90;45.00;;;;;;5021741;28;20485;-46
2022/03/12 02:06:53;;;;;;;9.38;5.95;;;3.80;45.50;;;;;;5013790;28;20053;-45
2022/03/12 02:09:25;;;;;;;12.45;6.43;;;3.80;45.40;;;;;;5030358;28;20022;-47
2022/03/12 02:11:53;;;;;;;10.35;6.25;;;3.80;45.40;;;;;;5032630;28;20423;-44
2022/03/12 02:14:25;;;;;;;12.00;7.20;;;3.80;45.50;;;;;;5015139;28;20028;-49
2022/03/12 02:17:02;;;;;;;11.25;6.30;;;3.80;45.70;;;;;;5015481;28;20033;-46
2022/03/12 02:19:31;;;;;;;12.20;6.57;;;3.80;45.50;;;;;;5015510;28;20462;-44
2022/03/12 02:22:05;;;;;;;;;;;3.70;45.70;;;;;;5016329;28;20040;-46
2022/03/12 02:24:35;;;;;;;10.20;6.43;;;3.70;45.40;;;;;;5015525;28;20359;-48
2022/03/12 02:27:04;;;;;;;10.02;7.15;;;3.70;45.40;;;;;;5015746;28;20033;-45
2022/03/12 02:29:43;;;;;;;14.40;6.28;;;3.70;45.30;;;;;;5015515;28;20441;-49
2022/03/12 02:32:10;;;;;;;9.15;5.82;;;3.70;45.50;;;;;;5032744;28;20025;-44
2022/03/12 02:34:53;;;;;;;14.48;7.10;;;3.60;45.70;;;;;;5032199;28;20022;-44
2022/03/12 02:37:35;;;;;;;12.75;7.00;;;3.70;45.30;;;;;;5017783;28;20119;-44
2022/03/12 02:40:09;;;;;;;18.40;6.15;;;3.70;45.60;;;;;;4997104;28;20348;-44
2022/03/12 02:42:39;;;;;;;9.18;5.88;;;3.70;45.40;;;;;;5004307;28;20033;-44
2022/03/12 02:45:09;;;;;;;11.40;6.38;;;3.70;44.80;;;;;;5032945;28;20036;-46
2022/03/12 02:47:40;;;;;;;9.93;6.50;;;3.80;44.90;;;;;;5015138;28;20048;-44
2022/03/12 02:50:15;;;;;;;9.23;6.07;;;3.70;45.50;;;;;;4992912;28;20107;-43
2022/03/12 02:52:44;;;;;;;9.30;6.15;;;3.70;45.20;;;;;;5030118;28;20034;-44
2022/03/12 02:55:24;;;;;;;11.30;6.68;;;3.70;45.30;;;;;;5014746;28;20045;-45
2022/03/12 02:57:52;;;;;;;9.73;6.00;;;3.70;45.50;;;;;;4999690;28;20079;-43
2022/03/12 03:00:20;;;;;;;11.93;5.88;;;3.70;45.60;;;;;;5014514;28;20037;-47
2022/03/12 03:02:58;;;;;;;8.98;5.65;;;3.70;45.10;;;;;;5031761;28;20033;-46
2022/03/12 03:05:33;;;;;;;10.68;6.13;;;3.80;44.80;;;;;;5014709;28;20025;-45
2022/03/12 03:08:04;;;;;;;10.43;6.40;;;3.80;44.90;;;;;;5015612;28;20057;-49
2022/03/12 03:10:37;;;;;;;13.65;7.90;;;3.70;45.40;;;;;;5013051;28;20058;-46
2022/03/12 03:13:18;;;;;;;13.65;6.13;;;3.70;45.40;;;;;;5016742;28;20116;-43
2022/03/12 03:16:04;;;;;;;12.73;6.80;;;3.70;46.00;;;;;;5014641;28;20029;-45
2022/03/12 03:18:34;;;;;;;10.02;5.35;;;3.70;45.90;;;;;;5031945;28;20165;-44
2022/03/12 03:21:00;;;;;;;;;;;3.70;45.80;;;;;;5015465;28;20107;-45
2022/03/12 03:23:31;;;;;;;10.07;6.10;;;3.70;45.90;;;;;;5031878;28;19916;-45
2022/03/12 03:26:01;;;;;;;9.52;5.55;;;3.70;45.60;;;;;;5031609;28;20087;-44
2022/03/12 03:28:29;;;;;;;8.48;5.22;;;3.70;45.50;;;;;;5014423;28;20599;-45
2022/03/12 03:30:58;;;;;;;11.35;5.75;;;3.70;45.20;;;;;;5031815;28;20029;-46
2022/03/12 03:33:25;;;;;;;;;;;3.60;45.50;;;;;;5014610;28;20045;-44
2022/03/12 03:35:55;;;;;;;9.80;6.38;;;3.70;45.70;;;;;;4997645;28;19921;-44
2022/03/12 03:38:21;;;;;;;;;;;3.60;45.80;;;;;;5031907;28;20040;-47
2022/03/12 03:40:50;;;;;;;11.13;5.57;;;3.60;45.40;;;;;;5031423;28;19954;-44
2022/03/12 03:43:21;;;;;;;11.10;6.15;;;3.70;44.90;;;;;;5031505;28;20026;-45
2022/03/12 03:45:52;;;;;;;13.00;6.30;;;3.70;44.80;;;;;;5030952;28;20028;-43
2022/03/12 03:48:22;;;;;;;10.77;5.90;;;3.60;45.20;;;;;;5014256;28;20026;-44
2022/03/12 03:51:00;;;;;;;9.25;5.57;;;3.60;45.10;;;;;;4995108;28;20117;-44
2022/03/12 03:53:27;;;;;;;9.93;6.63;;;3.60;45.20;;;;;;5026527;28;20036;-45
2022/03/12 03:55:57;;;;;;;9.45;5.68;;;3.50;45.20;;;;;;5031092;28;20025;-46
2022/03/12 03:58:27;;;;;;;9.00;6.28;;;3.50;45.30;;;;;;5015613;28;20038;-43
2022/03/12 04:01:12;;;;;;;9.10;5.32;;;3.60;45.00;;;;;;5010769;28;20038;-46
2022/03/12 04:03:44;;;;;;;13.68;6.03;;;3.60;44.70;;;;;;4995381;28;20041;-44
2022/03/12 04:06:10;;;;;;;9.02;5.20;;;3.60;44.50;;;;;;5030698;28;20470;-46
2022/03/12 04:08:41;;;;;;;13.15;6.22;;;3.60;44.40;;;;;;5013686;28;20041;-48
2022/03/12 04:11:19;;;;;;;10.45;5.82;;;3.60;44.30;;;;;;5030082;28;20117;-47
2022/03/12 04:13:51;;;;;;;10.05;5.93;;;3.60;44.10;;;;;;4996830;28;20033;-48
2022/03/12 04:16:20;;;;;;;10.23;6.03;;;3.60;44.00;;;;;;5022957;28;20041;-46
2022/03/12 04:18:48;;;;;;;9.27;5.88;;;3.60;44.10;;;;;;5004975;28;20058;-44
2022/03/12 04:21:20;;;;;;;9.32;5.88;;;3.60;44.40;;;;;;5020622;28;20021;-45
2022/03/12 04:23:49;;;;;;;10.13;5.18;;;3.50;44.50;;;;;;5004619;28;20451;-48
2022/03/12 04:26:18;;;;;;;8.73;5.63;;;3.60;44.50;;;;;;5023035;28;20082;-44
2022/03/12 04:28:46;;;;;;;8.23;4.97;;;3.50;44.40;;;;;;5005199;28;20770;-45
2022/03/12 04:31:15;;;;;;;12.85;5.45;;;3.50;44.90;;;;;;5022337;28;20072;-46
2022/03/12 04:33:41;;;;;;;8.98;5.47;;;3.50;44.70;;;;;;5021858;28;20029;-46
2022/03/12 04:36:13;;;;;;;9.00;6.25;;;3.50;44.30;;;;;;5008247;28;20072;-43
2022/03/12 04:38:39;;;;;;;8.68;5.88;;;3.50;44.00;;;;;;5020036;28;20095;-44
2022/03/12 04:41:08;;;;;;;9.45;5.57;;;3.50;44.10;;;;;;5004334;28;20482;-45
2022/03/12 04:43:35;;;;;;;7.75;5.50;;;3.50;44.10;;;;;;5003370;28;20041;-47
2022/03/12 04:46:02;;;;;;;11.95;6.57;;;3.50;44.40;;;;;;5023733;28;20033;-44
2022/03/12 04:48:28;;;;;;;7.28;4.85;;;3.50;44.20;;;;;;5030233;28;20029;-44
2022/03/12 04:50:56;;;;;;;10.45;4.95;;;3.50;44.30;;;;;;5030205;28;20028;-44
2022/03/12 04:53:26;;;;;;;8.80;5.22;;;3.50;44.40;;;;;;4996294;28;20032;-44
2022/03/12 04:55:53;;;;;;;;;;;3.40;44.00;;;;;;5012827;28;20033;-44
2022/03/12 04:58:20;;;;;;;10.10;5.82;;;3.50;44.40;;;;;;5029767;28;20251;-44
2022/03/12 05:00:47;;;;;;;11.23;5.90;;;3.40;44.40;;;;;;4996389;28;20425;-43
2022/03/12 05:03:22;;;;;;;8.77;5.20;;;3.50;44.10;;;;;;5030075;28;20040;-43
2022/03/12 05:05:53;;;;;;;10.35;5.85;;;3.40;44.30;;;;;;5012647;28;20037;-44
2022/03/12 05:08:31;;;;;;;11.60;5.47;;;3.40;44.50;;;;;;5012521;28;20041;-45
2022/03/12 05:10:57;;;;;;;6.78;4.82;;;3.50;44.80;;;;;;5009663;28;20060;-44
2022/03/12 05:13:27;;;;;;;9.95;5.53;;;3.40;44.30;;;;;;5026640;28;20048;-43
2022/03/12 05:16:06;;;;;;;11.60;6.10;;;3.40;45.10;;;;;;5012749;28;20022;-43
2022/03/12 05:18:36;;;;;;;10.60;5.25;;;3.30;45.30;;;;;;5009684;28;20040;-44
2022/03/12 05:21:02;;;;;;;;;;;3.30;45.40;;;;;;5030401;28;20417;-45
2022/03/12 05:23:28;;;;;;;8.18;4.90;;;3.30;45.30;;;;;;5029592;28;19912;-51
2022/03/12 05:25:57;;;;;;;10.05;5.97;;;3.30;45.60;;;;;;4991523;28;20026;-44
2022/03/12 05:28:32;;;;;;;12.52;7.20;;;3.20;45.50;;;;;;5001323;28;20025;-44
2022/03/12 05:31:04;;;;;;;8.32;5.57;;;3.20;45.70;;;;;;5013117;28;20087;-44
2022/03/12 05:33:31;;;;;;;8.20;5.05;;;3.30;46.00;;;;;;5025681;28;21511;-45
2022/03/12 05:36:00;;;;;;;21.67;6.75;;;3.30;45.80;;;;;;5007638;28;20120;-51
2022/03/12 05:38:36;;;;;;;11.18;5.25;;;3.30;45.70;;;;;;5027258;28;20045;-44
2022/03/12 05:41:10;;;;;;;8.63;5.50;;;3.30;45.80;;;;;;5003993;28;20044;-43
2022/03/12 05:43:47;;;;;;;9.68;5.07;;;3.30;46.10;;;;;;5003931;28;20435;-49
2022/03/12 05:46:26;;;;;;;10.20;4.75;;;3.30;45.80;;;;;;5005467;28;20531;-49
2022/03/12 05:48:54;;;;;;;12.15;5.15;;;3.40;46.10;;;;;;5021783;28;20037;-45
2022/03/12 05:51:24;;;;;;;7.60;5.07;;;3.40;46.10;;;;;;5023237;28;20378;-47
2022/03/12 05:53:52;;;;;;;9.05;6.05;;;3.40;46.30;;;;;;5023769;28;20049;-45
2022/03/12 05:56:19;;;;;;;7.60;5.32;;;3.40;46.20;;;;;;5001221;28;20418;-44
2022/03/12 05:58:46;;;;;;;9.93;5.55;;;3.40;45.50;;;;;;5021067;28;20021;-44
2022/03/12 06:01:14;;;;;;;9.45;5.63;;;3.40;45.20;;;;;;5001648;28;20068;-43
2022/03/12 06:03:44;;;;;;;9.25;5.05;;;3.40;45.30;;;;;;5016777;28;20049;-44
2022/03/12 06:06:11;;;;;;;10.15;6.05;;;3.40;45.60;;;;;;5012155;28;20604;-44
2022/03/12 06:08:39;;;;;;;8.23;5.13;;;3.40;45.80;;;;;;5029060;28;20045;-44
2022/03/12 06:11:07;;;;;;;8.60;5.22;;;3.40;46.10;;;;;;5028780;28;20504;-45
2022/03/12 06:13:34;;;;;;;8.82;5.35;;;3.40;46.30;;;;;;5028900;28;20083;-46
2022/03/12 06:16:02;;;;;;;9.02;5.10;;;3.40;45.90;;;;;;5023221;28;20014;-46
2022/03/12 06:18:38;;;;;;;10.50;5.93;;;3.40;46.80;;;;;;5020298;28;20083;-45
2022/03/12 06:21:06;;;;;;;9.30;5.50;;;3.40;46.50;;;;;;5002321;28;20053;-44
2022/03/12 06:23:35;;;;;;;15.00;6.20;;;3.30;46.90;;;;;;5005899;28;20043;-45
2022/03/12 06:26:14;;;;;;;8.13;5.25;;;3.40;46.00;;;;;;5011097;28;20073;-43
2022/03/12 06:28:41;;;;;;;6.18;4.63;;;3.40;45.90;;;;;;5026672;28;20026;-43
2022/03/12 06:31:12;;;;;;;8.35;4.95;;;3.40;46.10;;;;;;4995530;28;20100;-45
2022/03/12 06:33:42;;;;;;;8.93;5.57;;;3.50;46.10;;;;;;5027124;28;20040;-45
2022/03/12 06:36:09;;;;;;;7.80;4.90;;;3.40;46.20;;;;;;5014998;28;20116;-44
2022/03/12 06:38:40;;;;;;;10.38;5.68;;;3.40;46.90;;;;;;5032168;28;20045;-47
2022/03/12 06:41:09;;;;;;;9.02;6.25;;;3.40;46.40;;;;;;5032492;28;20057;-47
2022/03/12 06:43:40;;;;;;;8.45;5.57;;;3.40;46.30;;;;;;5015175;28;20486;-47
2022/03/12 06:46:06;;;;;;;9.68;6.65;;;3.50;46.20;;;;;;5031743;28;20049;-43
2022/03/12 06:48:34;;;;;;;12.05;5.80;;;3.50;46.40;;;;;;5014163;28;20084;-46
2022/03/12 06:50:59;;;;;;;8.57;4.95;;;3.50;46.20;;;;;;5036829;28;20021;-44
2022/03/12 06:53:26;;;;;;;9.50;5.15;;;3.60;46.10;;;;;;5026258;28;20036;-46
2022/03/12 06:55:53;;;;;;;10.23;5.47;;;3.70;44.90;;;;;;5015239;28;20022;-43
2022/03/12 06:58:23;;;;;;;8.85;5.40;;;3.70;45.50;;;;;;5025863;28;20033;-44
2022/03/12 07:00:49;;;;;;;;;;;3.70;45.70;;;;;;5033259;28;20033;-44
2022/03/12 07:03:15;;;;;;;5.80;4.03;;;3.70;45.60;;;;;;5032174;28;20602;-45
2022/03/12 07:05:40;;;;;;;8.60;5.10;;;3.80;45.50;;;;;;5032143;28;20037;-45
2022/03/12 07:08:06;;;;;;;8.48;4.78;;;3.90;45.40;;;;;;5029025;28;20034;-45
2022/03/12 07:10:33;;;;;;;10.07;5.45;;;4.00;45.00;;;;;;5030840;28;20352;-44
2022/03/12 07:12:59;;;;;;;15.18;6.53;;;4.10;45.20;;;;;;5013904;28;20033;-44
2022/03/12 07:15:26;;;;;;;8.27;4.85;;;4.20;43.80;;;;;;5031853;28;20017;-46
2022/03/12 07:17:54;;;;;;;10.65;5.57;;;4.20;44.00;;;;;;5031478;28;20339;-47
2022/03/12 07:20:20;;;;;;;8.50;5.50;;;4.40;43.80;;;;;;5031351;28;20030;-45
2022/03/12 07:22:48;;;;;;;9.93;5.13;;;4.40;43.70;;;;;;4997105;28;20111;-43
2022/03/12 07:25:16;;;;;;;7.60;5.07;;;4.50;43.60;;;;;;5013460;28;20110;-46
2022/03/12 07:27:44;;;;;;;8.43;5.35;;;4.60;43.80;;;;;;5031212;28;20097;-44
2022/03/12 07:30:14;;;;;;;10.38;4.93;;;4.70;44.10;;;;;;5031259;28;20029;-46
2022/03/12 07:32:43;;;;;;;8.18;4.72;;;4.90;43.50;;;;;;5031125;28;20108;-46
2022/03/12 07:35:18;;;;;;;7.35;5.35;;;5.00;43.00;;;;;;5013400;28;20091;-43
2022/03/12 07:37:49;;;;;;;8.18;4.70;;;5.10;42.70;;;;;;4998165;28;20025;-49
2022/03/12 07:40:16;;;;;;;7.32;4.82;;;5.30;41.90;;;;;;5030310;28;20041;-45
2022/03/12 07:42:44;;;;;;;10.30;5.68;;;5.40;41.70;;;;;;5012245;28;20363;-43
2022/03/12 07:45:11;;;;;;;10.45;6.47;;;5.60;41.20;;;;;;5012694;28;20115;-45
2022/03/12 07:47:40;;;;;;;7.82;5.03;;;5.70;40.80;;;;;;5030447;28;20140;-43
2022/03/12 07:50:18;;;;;;;9.38;5.18;;;5.70;40.50;;;;;;5010291;28;20048;-45
2022/03/12 07:52:45;;;;;;;10.63;6.47;;;5.70;41.20;;;;;;5030619;28;20108;-44
2022/03/12 07:55:13;;;;;;;7.40;5.53;;;5.80;40.90;;;;;;5031138;28;20438;-44
2022/03/12 07:57:41;;;;;;;9.57;6.07;;;5.70;40.70;;;;;;5030747;28;20124;-44
2022/03/12 08:00:11;;;;;;;8.85;5.20;;;5.70;40.50;;;;;;5010082;28;20352;-44
2022/03/12 08:02:39;;;;;;;8.98;5.28;;;5.60;40.70;;;;;;4989694;28;20035;-45
2022/03/12 08:05:06;;;;;;;8.52;5.25;;;5.70;40.50;;;;;;5029639;28;20025;-44
2022/03/12 08:07:33;;;;;;;7.25;4.57;;;5.90;41.30;;;;;;5030426;28;20037;-46
2022/03/12 08:09:59;;;;;;;11.10;5.13;;;6.10;40.60;;;;;;5029651;28;20021;-45
2022/03/12 08:12:31;;;;;;;8.73;5.88;;;6.20;40.90;;;;;;5029706;28;20049;-46
2022/03/12 08:14:59;;;;;;;7.97;4.40;;;6.30;40.40;;;;;;5013829;28;20051;-43
2022/03/12 08:17:25;;;;;;;7.97;4.97;;;6.30;39.90;;;;;;5031131;28;20512;-49
2022/03/12 08:19:58;;;;;;;7.95;5.28;;;6.50;39.80;;;;;;5013394;28;20439;-43
2022/03/12 08:22:27;;;;;;;9.18;5.57;;;6.60;40.20;;;;;;5026880;28;20101;-45
2022/03/12 08:24:55;;;;;;;8.40;5.60;;;6.80;39.80;;;;;;5022994;28;20021;-44
2022/03/12 08:27:21;;;;;;;7.95;5.30;;;6.90;39.70;;;;;;5029400;28;20021;-44
2022/03/12 08:29:48;;;;;;;9.32;5.38;;;7.10;39.60;;;;;;5029316;28;20031;-45
2022/03/12 08:32:15;;;;;;;9.65;5.57;;;7.20;39.40;;;;;;4980724;28;20416;-44
2022/03/12 08:34:45;;;;;;;8.20;4.78;;;7.50;38.50;;;;;;5019037;28;20038;-44
2022/03/12 08:37:13;;;;;;;10.07;5.60;;;7.60;37.70;;;;;;5025376;28;20030;-44
2022/03/12 08:39:40;;;;;;;8.07;5.07;;;7.90;37.70;;;;;;5006757;28;20128;-45
2022/03/12 08:42:06;;;;;;;7.60;4.47;;;8.20;37.90;;;;;;5026963;28;20389;-44
2022/03/12 08:44:32;;;;;;;9.48;5.38;;;8.50;37.70;;;;;;5019096;28;20034;-45
2022/03/12 08:46:59;;;;;;;8.15;5.43;;;8.50;36.60;;;;;;5022001;28;20021;-45
2022/03/12 08:49:25;;;;;;;7.68;5.45;;;8.40;36.30;;;;;;5024019;28;20026;-44
2022/03/12 08:51:51;;;;;;;7.70;5.00;;;8.30;36.20;;;;;;5031269;28;20021;-43
2022/03/12 08:54:19;;;;;;;9.23;5.28;;;8.30;36.80;;;;;;5029454;28;20825;-44
2022/03/12 08:56:45;;;;;;;7.30;5.32;;;8.40;37.20;;;;;;5029957;28;20040;-44
2022/03/12 08:59:13;;;;;;;9.38;5.90;;;8.50;37.70;;;;;;5007158;28;20052;-45
2022/03/12 09:01:44;;;;;;;10.07;5.47;;;8.20;37.60;;;;;;5008509;28;20037;-45
2022/03/12 09:04:11;;;;;;;9.43;5.53;;;7.90;37.70;;;;;;5008373;28;20069;-44
2022/03/12 09:06:40;;;;;;;8.35;5.82;;;7.70;38.60;;;;;;5026329;28;20045;-44
2022/03/12 09:09:07;;;;;;;9.73;5.47;;;7.50;38.50;;;;;;5011997;28;20447;-44
2022/03/12 09:11:34;;;;;;;8.02;5.53;;;7.40;38.90;;;;;;5002002;28;20049;-44
2022/03/12 09:14:02;;;;;;;10.27;5.65;;;7.30;39.20;;;;;;5027294;28;20033;-44
2022/03/12 09:16:31;;;;;;;9.55;5.90;;;7.60;40.10;;;;;;5025661;28;20018;-47
2022/03/12 09:18:59;;;;;;;9.25;6.38;;;8.00;38.70;;;;;;5011109;28;20061;-44
2022/03/12 09:21:26;;;;;;;8.65;5.75;;;8.40;38.70;;;;;;5007984;28;20030;-46
2022/03/12 09:23:53;;;;;;;8.40;5.85;;;8.70;37.80;;;;;;5028805;28;20035;-45
2022/03/12 09:26:22;;;;;;;9.65;6.72;;;9.10;37.00;;;;;;5029764;28;20026;-44
2022/03/12 09:28:50;;;;;;;7.82;5.15;;;9.30;36.10;;;;;;5012219;28;20506;-44
2022/03/12 09:31:16;;;;;;;9.27;6.07;;;9.40;36.90;;;;;;5039244;28;20045;-44
2022/03/12 09:33:45;;;;;;;9.63;6.35;;;9.40;36.60;;;;;;5012079;28;20021;-45
2022/03/12 09:36:12;;;;;;;9.45;5.45;;;9.60;36.60;;;;;;5011752;28;20112;-44
2022/03/12 09:38:39;;;;;;;7.28;5.70;;;9.60;35.80;;;;;;5033620;28;20033;-44
2022/03/12 09:41:05;;;;;;;10.75;5.88;;;9.40;36.60;;;;;;5028964;28;20085;-43
2022/03/12 09:43:32;;;;;;;13.30;6.78;;;9.20;37.10;;;;;;5028878;28;20056;-43
2022/03/12 09:46:00;;;;;;;8.57;6.10;;;9.20;37.40;;;;;;5029437;28;20079;-44
2022/03/12 09:48:26;;;;;;;11.45;5.97;;;9.40;37.70;;;;;;4982960;28;20048;-43
2022/03/12 09:50:53;;;;;;;8.13;5.32;;;9.50;37.00;;;;;;5008532;28;20021;-46
2022/03/12 09:53:21;;;;;;;9.27;6.68;;;9.70;38.00;;;;;;5011724;28;20116;-44
2022/03/12 09:55:47;;;;;;;7.45;5.47;;;9.80;36.50;;;;;;5011306;28;20072;-43
2022/03/12 09:58:14;;;;;;;8.10;5.93;;;9.80;36.80;;;;;;5029109;28;20053;-44
2022/03/12 10:00:41;;;;;;;9.35;5.55;;;9.90;37.00;;;;;;5007663;28;20037;-44
2022/03/12 10:03:09;;;;;;;9.57;5.70;;;9.90;37.10;;;;;;5021716;28;20557;-45
2022/03/12 10:05:37;;;;;;;7.18;5.65;;;10.10;38.40;;;;;;5011613;28;20147;-44
2022/03/12 10:08:02;;;;;;;10.98;6.55;;;10.20;37.60;;;;;;5011450;28;20432;-43
2022/03/12 10:10:30;;;;;;;9.07;6.07;;;10.30;37.00;;;;;;5031686;28;20095;-43
2022/03/12 10:12:57;;;;;;;8.35;5.80;;;10.30;37.00;;;;;;4995706;28;20034;-44
2022/03/12 10:15:23;;;;;;;8.88;5.95;;;10.40;37.60;;;;;;5012275;28;20152;-44
2022/03/12 10:17:49;;;;;;;9.20;6.45;;;10.40;37.40;;;;;;4993369;28;20121;-43
2022/03/12 10:20:15;;;;;;;9.18;7.18;;;10.30;37.50;;;;;;5015407;28;20025;-44
2022/03/12 10:22:43;;;;;;;8.90;6.38;;;10.40;37.50;;;;;;5032981;28;20359;-44
2022/03/12 10:25:12;;;;;;;8.50;6.85;;;10.60;38.00;;;;;;4999258;28;20037;-44
2022/03/12 10:27:40;;;;;;;9.05;6.30;;;10.60;38.50;;;;;;5032909;28;21909;-43
2022/03/12 10:30:07;;;;;;;8.50;6.35;;;10.90;38.20;;;;;;5014836;28;20513;-44
2022/03/12 10:32:41;;;;;;;9.00;6.55;;;11.10;37.10;;;;;;5012252;28;20730;-46
2022/03/12 10:35:09;;;;;;;9.27;6.65;;;11.10;37.90;;;;;;5006791;28;20076;-45
2022/03/12 10:37:37;;;;;;;7.00;5.78;;;11.00;38.00;;;;;;5016472;28;20033;-43
2022/03/12 10:40:16;;;;;;;8.57;6.35;;;10.90;38.20;;;;;;5030712;28;20029;-45
2022/03/12 10:43:07;;;;;;;12.52;7.03;;;11.00;37.70;;;;;;5013283;28;20036;-45
2022/03/12 10:45:46;;;;;;;9.63;7.22;;;10.90;37.90;;;;;;5011815;28;20132;-44
2022/03/12 10:48:20;;;;;;;9.57;7.15;;;10.90;37.80;;;;;;5029852;28;20129;-46
2022/03/12 10:50:51;;;;;;;8.27;6.20;;;10.80;38.90;;;;;;5025091;28;20037;-45
2022/03/12 10:53:19;;;;;;;10.02;7.10;;;10.90;38.00;;;;;;5021966;28;20026;-45
2022/03/12 10:55:47;;;;;;;9.50;7.03;;;10.90;37.90;;;;;;5030633;28;20026;-44
2022/03/12 10:58:28;;;;;;;9.20;6.50;;;10.70;38.80;;;;;;5007296;28;20048;-44
2022/03/12 11:01:02;;;;;;;9.55;6.78;;;10.70;39.20;;;;;;5030074;28;20034;-45
2022/03/12 11:03:34;;;;;;;8.30;6.45;;;10.80;39.90;;;;;;5031100;28;20036;-43
2022/03/12 11:06:05;;;;;;;9.05;6.85;;;10.90;39.80;;;;;;4987950;28;20042;-44
2022/03/12 11:08:34;;;;;;;9.98;6.78;;;11.20;39.70;;;;;;5011853;28;20325;-46
2022/03/12 11:11:22;;;;;;;10.32;6.78;;;11.30;38.70;;;;;;5011778;28;20034;-45
2022/03/12 11:13:51;;;;;;;9.35;6.35;;;11.40;38.40;;;;;;5026129;28;20028;-44
2022/03/12 11:16:28;;;;;;;9.23;6.57;;;11.40;39.50;;;;;;5028409;28;20026;-44
2022/03/12 11:22:13;;;;;;;10.27;7.85;;;11.40;40.70;;;;;;5013193;28;20072;-45
2022/03/12 11:24:59;;;;;;;9.93;6.68;;;11.50;39.30;;;;;;4989330;28;20505;-46
2022/03/12 11:27:35;;;;;;;9.90;6.97;;;11.40;40.30;;;;;;5028746;28;20029;-44
2022/03/12 11:30:08;;;;;;;11.57;7.20;;;11.50;40.90;;;;;;5028938;28;20034;-43
2022/03/12 11:32:46;;;;;;;9.25;6.50;;;11.60;40.50;;;;;;5028268;28;20041;-45
2022/03/12 11:35:17;;;;;;;10.07;7.10;;;11.60;41.60;;;;;;5011082;28;20037;-43
2022/03/12 11:37:45;;;;;;;8.48;5.75;;;11.70;39.80;;;;;;5028151;28;20044;-45
2022/03/12 11:40:19;;;;;;;9.07;6.88;;;11.70;41.20;;;;;;5011725;28;20473;-44
2022/03/12 11:42:48;;;;;;;10.25;6.32;;;11.70;41.10;;;;;;5026595;28;20036;-47
2022/03/12 11:45:20;;;;;;;10.48;6.32;;;11.90;41.80;;;;;;4994843;28;20029;-46
2022/03/12 11:47:46;;;;;;;9.63;6.93;;;12.00;40.90;;;;;;5016662;28;20129;-44
2022/03/12 11:50:22;;;;;;;10.35;6.57;;;12.10;40.40;;;;;;5010683;28;20076;-45
2022/03/12 11:52:50;;;;;;;9.15;7.25;;;12.20;40.10;;;;;;4992259;28;20057;-47
2022/03/12 11:55:22;;;;;;;9.02;6.78;;;12.20;40.10;;;;;;5027096;28;20514;-45
2022/03/12 11:57:51;;;;;;;11.63;7.70;;;12.10;41.00;;;;;;4997520;28;20060;-46
2022/03/12 12:00:29;;;;;;;9.85;7.60;;;12.10;41.90;;;;;;5000852;28;20035;-45
2022/03/12 12:02:56;;;;;;;9.80;7.03;;;12.10;40.60;;;;;;5029732;28;20501;-45
2022/03/12 12:05:36;;;;;;;11.38;6.70;;;12.20;41.80;;;;;;5021843;28;20084;-44
2022/03/12 12:08:04;;;;;;;8.57;6.30;;;12.40;41.10;;;;;;5037854;28;20036;-46
2022/03/12 12:10:31;;;;;;;8.82;6.90;;;12.40;41.20;;;;;;4993634;28;20041;-46
2022/03/12 12:13:01;;;;;;;11.05;7.10;;;12.60;40.20;;;;;;5029564;28;20043;-45
2022/03/12 12:15:36;;;;;;;8.27;6.63;;;12.40;40.90;;;;;;4999387;28;20048;-44
2022/03/12 12:18:12;;;;;;;11.93;7.28;;;12.40;41.00;;;;;;5026019;28;20091;-46
2022/03/12 12:20:56;;;;;;;8.95;6.80;;;12.50;41.10;;;;;;5019985;28;20049;-47
2022/03/12 12:23:21;;;;;;;8.20;7.10;;;12.30;42.20;;;;;;5006118;28;20037;-45
2022/03/12 12:25:49;;;;;;;10.18;6.88;;;12.30;41.80;;;;;;5036637;28;20035;-44
2022/03/12 12:28:28;;;;;;;10.35;6.75;;;12.40;41.90;;;;;;5029064;28;20047;-47
2022/03/12 12:30:57;;;;;;;9.75;6.65;;;12.60;42.20;;;;;;5027444;28;20411;-45
2022/03/12 12:33:35;;;;;;;11.50;6.22;;;12.60;43.00;;;;;;5027723;28;20037;-42
2022/03/12 12:36:29;;;;;;;9.80;7.03;;;12.60;42.10;;;;;;5015054;28;20506;-42
2022/03/12 12:39:13;;;;;;;9.57;7.53;;;12.50;42.50;;;;;;5023532;28;20043;-44
2022/03/12 12:42:07;;;;;;;12.15;7.72;;;12.60;43.70;;;;;;5030259;28;20044;-43
2022/03/12 12:44:36;;;;;;;10.65;7.38;;;12.50;42.90;;;;;;5014286;28;20108;-42
2022/03/12 12:47:17;;;;;;;10.73;7.55;;;12.50;42.50;;;;;;5028597;28;20033;-43
2022/03/12 12:49:50;;;;;;;13.98;8.00;;;12.70;43.00;;;;;;5028778;28;20103;-43
2022/03/12 12:52:16;;;;;;;13.27;7.82;;;12.90;43.00;;;;;;5012750;28;20030;-43
2022/03/12 12:55:00;;;;;;;10.73;7.57;;;12.80;42.60;;;;;;5015656;28;20033;-42
2022/03/12 12:57:43;;;;;;;13.43;8.18;;;12.70;42.60;;;;;;5029344;28;20493;-44
2022/03/12 13:00:49;;;;;;;11.55;7.40;;;12.60;42.90;;;;;;5026385;28;20025;-42
2022/03/12 13:03:20;;;;;;;12.02;7.20;;;12.60;42.40;;;;;;5011169;28;20068;-42
2022/03/12 13:05:53;;;;;;;10.38;7.55;;;12.60;42.70;;;;;;5012833;28;20034;-44
2022/03/12 13:08:26;;;;;;;9.63;7.47;;;12.50;43.00;;;;;;5015438;28;20097;-43
2022/03/12 13:11:23;;;;;;;8.80;6.43;;;12.40;43.20;;;;;;4989262;28;20440;-42
2022/03/12 13:14:02;;;;;;;10.93;7.50;;;12.60;43.30;;;;;;5003988;28;20458;-44